sensor_id;sensor_type;location;lat;lon;timestamp;P1;durP1;ratioP1;P2;durP2;ratioP2
4738;SDS011;2383;48.632;10.156;2024-02-15T00:01:19;9.00;;;6.13;;
4738;SDS011;2383;48.632;10.156;2024-02-15T00:05:21;9.63;;;5.77;;
4738;SDS011;2383;48.632;10.156;2024-02-15T00:09:23;11.50;;;5.90;;
4738;SDS011;2383;48.632;10.156;2024-02-15T00:13:25;5.83;;;4.40;;
4738;SDS011;2383;48.632;10.156;2024-02-15T00:17:27;6.13;;;5.00;;
4738;SDS011;2383;48.632;10.156;2024-02-15T00:21:32;6.80;;;4.50;;
4738;SDS011;2383;48.632;10.156;2024-02-15T00:25:34;6.70;;;4.70;;
4738;SDS011;2383;48.632;10.156;2024-02-15T00:29:37;7.13;;;5.10;;
4738;SDS011;2383;48.632;10.156;2024-02-15T00:33:39;6.40;;;5.07;;
4738;SDS011;2383;48.632;10.156;2024-02-15T00:37:43;8.47;;;5.40;;
4738;SDS011;2383;48.632;10.156;2024-02-15T00:41:45;7.47;;;5.17;;
4738;SDS011;2383;48.632;10.156;2024-02-15T00:45:48;7.23;;;4.80;;
4738;SDS011;2383;48.632;10.156;2024-02-15T00:49:50;8.13;;;4.83;;
4738;SDS011;2383;48.632;10.156;2024-02-15T00:53:52;8.00;;;4.60;;
4738;SDS011;2383;48.632;10.156;2024-02-15T00:57:54;8.03;;;4.17;;
4738;SDS011;2383;48.632;10.156;2024-02-15T01:01:56;5.53;;;4.60;;
4738;SDS011;2383;48.632;10.156;2024-02-15T01:05:59;11.13;;;6.40;;
4738;SDS011;2383;48.632;10.156;2024-02-15T01:10:01;9.63;;;6.87;;
4738;SDS011;2383;48.632;10.156;2024-02-15T01:14:04;10.20;;;6.40;;
4738;SDS011;2383;48.632;10.156;2024-02-15T01:18:10;9.27;;;6.40;;
4738;SDS011;2383;48.632;10.156;2024-02-15T01:22:13;7.20;;;5.05;;
4738;SDS011;2383;48.632;10.156;2024-02-15T01:26:15;5.63;;;3.90;;
4738;SDS011;2383;48.632;10.156;2024-02-15T01:30:17;5.97;;;4.10;;
4738;SDS011;2383;48.632;10.156;2024-02-15T01:34:20;6.67;;;4.33;;
4738;SDS011;2383;48.632;10.156;2024-02-15T01:38:23;5.67;;;3.70;;
4738;SDS011;2383;48.632;10.156;2024-02-15T01:42:25;5.70;;;4.23;;
4738;SDS011;2383;48.632;10.156;2024-02-15T01:46:27;7.33;;;4.37;;
4738;SDS011;2383;48.632;10.156;2024-02-15T01:50:31;5.10;;;3.60;;
4738;SDS011;2383;48.632;10.156;2024-02-15T01:54:35;6.13;;;3.83;;
4738;SDS011;2383;48.632;10.156;2024-02-15T01:58:40;4.80;;;4.00;;
4738;SDS011;2383;48.632;10.156;2024-02-15T02:02:44;5.83;;;4.30;;
4738;SDS011;2383;48.632;10.156;2024-02-15T02:06:47;6.93;;;3.80;;
4738;SDS011;2383;48.632;10.156;2024-02-15T02:10:50;4.67;;;3.67;;
4738;SDS011;2383;48.632;10.156;2024-02-15T02:14:54;5.27;;;3.80;;
4738;SDS011;2383;48.632;10.156;2024-02-15T02:18:56;6.30;;;4.20;;
4738;SDS011;2383;48.632;10.156;2024-02-15T02:23:02;7.00;;;4.43;;
4738;SDS011;2383;48.632;10.156;2024-02-15T02:27:14;5.43;;;4.27;;
4738;SDS011;2383;48.632;10.156;2024-02-15T02:31:17;6.70;;;4.47;;
4738;SDS011;2383;48.632;10.156;2024-02-15T02:35:19;6.67;;;4.20;;
4738;SDS011;2383;48.632;10.156;2024-02-15T02:39:21;6.53;;;4.23;;
4738;SDS011;2383;48.632;10.156;2024-02-15T02:43:24;5.27;;;4.13;;
4738;SDS011;2383;48.632;10.156;2024-02-15T02:47:26;5.50;;;4.10;;
4738;SDS011;2383;48.632;10.156;2024-02-15T02:51:28;4.87;;;3.77;;
4738;SDS011;2383;48.632;10.156;2024-02-15T02:55:30;5.07;;;3.87;;
4738;SDS011;2383;48.632;10.156;2024-02-15T02:59:33;5.80;;;4.47;;
4738;SDS011;2383;48.632;10.156;2024-02-15T03:03:37;5.80;;;4.10;;
4738;SDS011;2383;48.632;10.156;2024-02-15T03:07:40;5.63;;;4.37;;
4738;SDS011;2383;48.632;10.156;2024-02-15T03:11:42;6.00;;;3.93;;
4738;SDS011;2383;48.632;10.156;2024-02-15T03:15:45;6.50;;;4.07;;
4738;SDS011;2383;48.632;10.156;2024-02-15T03:19:50;6.50;;;4.40;;
4738;SDS011;2383;48.632;10.156;2024-02-15T03:23:52;7.73;;;4.03;;
4738;SDS011;2383;48.632;10.156;2024-02-15T03:27:55;4.83;;;3.90;;
4738;SDS011;2383;48.632;10.156;2024-02-15T03:31:58;4.43;;;3.97;;
4738;SDS011;2383;48.632;10.156;2024-02-15T03:36:01;5.67;;;4.57;;
4738;SDS011;2383;48.632;10.156;2024-02-15T03:40:03;4.47;;;3.77;;
4738;SDS011;2383;48.632;10.156;2024-02-15T03:44:06;5.07;;;3.43;;
4738;SDS011;2383;48.632;10.156;2024-02-15T03:48:10;6.50;;;3.67;;
4738;SDS011;2383;48.632;10.156;2024-02-15T03:52:13;4.33;;;3.00;;
4738;SDS011;2383;48.632;10.156;2024-02-15T03:56:16;3.70;;;3.00;;
4738;SDS011;2383;48.632;10.156;2024-02-15T04:00:18;5.30;;;2.47;;
4738;SDS011;2383;48.632;10.156;2024-02-15T04:04:23;3.00;;;2.67;;
4738;SDS011;2383;48.632;10.156;2024-02-15T04:08:26;3.47;;;2.80;;
4738;SDS011;2383;48.632;10.156;2024-02-15T04:12:28;5.47;;;2.93;;
4738;SDS011;2383;48.632;10.156;2024-02-15T04:16:30;5.37;;;2.70;;
4738;SDS011;2383;48.632;10.156;2024-02-15T04:20:36;4.27;;;2.70;;
4738;SDS011;2383;48.632;10.156;2024-02-15T04:24:38;4.87;;;2.80;;
4738;SDS011;2383;48.632;10.156;2024-02-15T04:28:43;5.57;;;3.07;;
4738;SDS011;2383;48.632;10.156;2024-02-15T04:32:48;3.70;;;3.07;;
4738;SDS011;2383;48.632;10.156;2024-02-15T04:36:51;5.20;;;3.63;;
4738;SDS011;2383;48.632;10.156;2024-02-15T04:40:57;9.53;;;3.70;;
4738;SDS011;2383;48.632;10.156;2024-02-15T04:45:01;4.97;;;4.47;;
4738;SDS011;2383;48.632;10.156;2024-02-15T04:49:04;6.07;;;3.43;;
4738;SDS011;2383;48.632;10.156;2024-02-15T04:53:07;4.13;;;3.70;;
4738;SDS011;2383;48.632;10.156;2024-02-15T04:57:10;4.47;;;3.33;;
4738;SDS011;2383;48.632;10.156;2024-02-15T05:01:16;5.73;;;5.00;;
4738;SDS011;2383;48.632;10.156;2024-02-15T05:05:19;4.70;;;4.20;;
4738;SDS011;2383;48.632;10.156;2024-02-15T05:09:22;5.87;;;3.93;;
4738;SDS011;2383;48.632;10.156;2024-02-15T05:13:24;7.30;;;4.00;;
4738;SDS011;2383;48.632;10.156;2024-02-15T05:17:27;5.93;;;4.40;;
4738;SDS011;2383;48.632;10.156;2024-02-15T05:21:33;10.30;;;6.97;;
4738;SDS011;2383;48.632;10.156;2024-02-15T05:25:35;8.40;;;6.40;;
4738;SDS011;2383;48.632;10.156;2024-02-15T05:29:37;7.53;;;5.67;;
4738;SDS011;2383;48.632;10.156;2024-02-15T05:33:41;5.83;;;5.17;;
4738;SDS011;2383;48.632;10.156;2024-02-15T05:37:45;6.60;;;4.27;;
4738;SDS011;2383;48.632;10.156;2024-02-15T05:41:47;7.30;;;4.40;;
4738;SDS011;2383;48.632;10.156;2024-02-15T05:45:50;5.23;;;3.93;;
4738;SDS011;2383;48.632;10.156;2024-02-15T05:49:53;6.73;;;3.70;;
4738;SDS011;2383;48.632;10.156;2024-02-15T05:53:56;3.83;;;3.20;;
4738;SDS011;2383;48.632;10.156;2024-02-15T05:58:01;5.40;;;3.50;;
4738;SDS011;2383;48.632;10.156;2024-02-15T06:02:04;5.80;;;3.30;;
4738;SDS011;2383;48.632;10.156;2024-02-15T06:06:06;6.53;;;3.37;;
4738;SDS011;2383;48.632;10.156;2024-02-15T06:10:09;5.97;;;3.70;;
4738;SDS011;2383;48.632;10.156;2024-02-15T06:14:11;4.90;;;3.10;;
4738;SDS011;2383;48.632;10.156;2024-02-15T06:18:13;5.57;;;3.30;;
4738;SDS011;2383;48.632;10.156;2024-02-15T06:22:18;5.53;;;3.10;;
4738;SDS011;2383;48.632;10.156;2024-02-15T06:26:20;3.40;;;3.07;;
4738;SDS011;2383;48.632;10.156;2024-02-15T06:30:22;4.77;;;3.00;;
4738;SDS011;2383;48.632;10.156;2024-02-15T06:34:43;3.30;;;3.00;;
4738;SDS011;2383;48.632;10.156;2024-02-15T06:39:04;5.40;;;3.57;;
4738;SDS011;2383;48.632;10.156;2024-02-15T06:43:24;3.63;;;2.97;;
4738;SDS011;2383;48.632;10.156;2024-02-15T06:47:27;5.97;;;3.53;;
4738;SDS011;2383;48.632;10.156;2024-02-15T06:51:29;4.97;;;3.83;;
4738;SDS011;2383;48.632;10.156;2024-02-15T06:55:32;5.10;;;3.93;;
4738;SDS011;2383;48.632;10.156;2024-02-15T06:59:35;7.63;;;4.17;;
4738;SDS011;2383;48.632;10.156;2024-02-15T07:03:39;6.07;;;4.67;;
4738;SDS011;2383;48.632;10.156;2024-02-15T07:07:41;6.97;;;6.00;;
4738;SDS011;2383;48.632;10.156;2024-02-15T07:11:44;10.07;;;6.80;;
4738;SDS011;2383;48.632;10.156;2024-02-15T07:15:53;8.90;;;7.00;;
4738;SDS011;2383;48.632;10.156;2024-02-15T07:19:55;9.43;;;7.30;;
4738;SDS011;2383;48.632;10.156;2024-02-15T07:23:57;12.93;;;7.90;;
4738;SDS011;2383;48.632;10.156;2024-02-15T07:28:00;10.90;;;7.70;;
4738;SDS011;2383;48.632;10.156;2024-02-15T07:32:05;6.87;;;5.47;;
4738;SDS011;2383;48.632;10.156;2024-02-15T07:36:08;7.27;;;4.33;;
4738;SDS011;2383;48.632;10.156;2024-02-15T07:40:11;6.20;;;4.83;;
4738;SDS011;2383;48.632;10.156;2024-02-15T07:44:15;7.03;;;4.97;;
4738;SDS011;2383;48.632;10.156;2024-02-15T07:48:19;9.20;;;5.77;;
4738;SDS011;2383;48.632;10.156;2024-02-15T07:52:21;10.70;;;7.93;;
4738;SDS011;2383;48.632;10.156;2024-02-15T07:56:23;9.43;;;6.53;;
4738;SDS011;2383;48.632;10.156;2024-02-15T08:00:26;8.60;;;6.87;;
4738;SDS011;2383;48.632;10.156;2024-02-15T08:04:29;10.97;;;6.70;;
4738;SDS011;2383;48.632;10.156;2024-02-15T08:08:34;9.63;;;6.47;;
4738;SDS011;2383;48.632;10.156;2024-02-15T08:12:36;8.50;;;5.87;;
4738;SDS011;2383;48.632;10.156;2024-02-15T08:16:39;8.77;;;5.80;;
4738;SDS011;2383;48.632;10.156;2024-02-15T08:20:42;9.23;;;5.90;;
4738;SDS011;2383;48.632;10.156;2024-02-15T08:24:46;9.77;;;5.93;;
4738;SDS011;2383;48.632;10.156;2024-02-15T08:28:49;7.13;;;5.60;;
4738;SDS011;2383;48.632;10.156;2024-02-15T08:32:51;10.07;;;6.57;;
4738;SDS011;2383;48.632;10.156;2024-02-15T08:36:56;10.70;;;6.20;;
4738;SDS011;2383;48.632;10.156;2024-02-15T08:40:59;12.13;;;6.40;;
4738;SDS011;2383;48.632;10.156;2024-02-15T08:45:01;10.57;;;6.80;;
4738;SDS011;2383;48.632;10.156;2024-02-15T08:49:04;8.43;;;5.67;;
4738;SDS011;2383;48.632;10.156;2024-02-15T08:53:06;9.97;;;5.50;;
4738;SDS011;2383;48.632;10.156;2024-02-15T08:57:09;9.43;;;5.40;;
4738;SDS011;2383;48.632;10.156;2024-02-15T09:01:13;9.53;;;5.97;;
4738;SDS011;2383;48.632;10.156;2024-02-15T09:05:15;8.87;;;5.37;;
4738;SDS011;2383;48.632;10.156;2024-02-15T09:09:19;8.07;;;5.37;;
4738;SDS011;2383;48.632;10.156;2024-02-15T09:13:21;8.70;;;6.27;;
4738;SDS011;2383;48.632;10.156;2024-02-15T09:17:24;8.97;;;5.50;;
4738;SDS011;2383;48.632;10.156;2024-02-15T09:21:28;12.30;;;6.50;;
4738;SDS011;2383;48.632;10.156;2024-02-15T09:25:31;14.67;;;7.67;;
4738;SDS011;2383;48.632;10.156;2024-02-15T09:29:33;12.97;;;7.47;;
4738;SDS011;2383;48.632;10.156;2024-02-15T09:33:35;12.13;;;6.33;;
4738;SDS011;2383;48.632;10.156;2024-02-15T09:37:43;8.93;;;6.53;;
4738;SDS011;2383;48.632;10.156;2024-02-15T09:41:51;9.80;;;6.97;;
4738;SDS011;2383;48.632;10.156;2024-02-15T09:46:00;10.67;;;6.47;;
4738;SDS011;2383;48.632;10.156;2024-02-15T09:50:12;16.20;;;7.37;;
4738;SDS011;2383;48.632;10.156;2024-02-15T09:54:16;10.80;;;7.67;;
4738;SDS011;2383;48.632;10.156;2024-02-15T09:58:24;8.53;;;6.17;;
4738;SDS011;2383;48.632;10.156;2024-02-15T10:02:26;9.70;;;6.67;;
4738;SDS011;2383;48.632;10.156;2024-02-15T10:06:29;8.63;;;6.83;;
4738;SDS011;2383;48.632;10.156;2024-02-15T10:10:32;11.83;;;6.53;;
4738;SDS011;2383;48.632;10.156;2024-02-15T10:14:35;10.97;;;6.80;;
4738;SDS011;2383;48.632;10.156;2024-02-15T10:18:38;9.27;;;6.70;;
4738;SDS011;2383;48.632;10.156;2024-02-15T10:22:41;12.07;;;6.53;;
4738;SDS011;2383;48.632;10.156;2024-02-15T10:26:43;11.37;;;7.10;;
4738;SDS011;2383;48.632;10.156;2024-02-15T10:30:45;9.80;;;6.77;;
4738;SDS011;2383;48.632;10.156;2024-02-15T10:34:49;10.20;;;6.87;;
4738;SDS011;2383;48.632;10.156;2024-02-15T10:38:51;9.60;;;6.40;;
4738;SDS011;2383;48.632;10.156;2024-02-15T10:42:54;8.93;;;5.50;;
4738;SDS011;2383;48.632;10.156;2024-02-15T10:46:59;10.00;;;6.17;;
4738;SDS011;2383;48.632;10.156;2024-02-15T10:51:09;9.03;;;6.00;;
4738;SDS011;2383;48.632;10.156;2024-02-15T10:55:14;8.00;;;5.73;;
4738;SDS011;2383;48.632;10.156;2024-02-15T10:59:24;8.63;;;5.50;;
4738;SDS011;2383;48.632;10.156;2024-02-15T11:03:35;8.73;;;4.50;;
4738;SDS011;2383;48.632;10.156;2024-02-15T11:07:42;4.17;;;3.00;;
4738;SDS011;2383;48.632;10.156;2024-02-15T11:11:45;6.60;;;4.00;;
4738;SDS011;2383;48.632;10.156;2024-02-15T11:15:48;4.60;;;3.25;;
4738;SDS011;2383;48.632;10.156;2024-02-15T11:19:54;6.77;;;4.40;;
4738;SDS011;2383;48.632;10.156;2024-02-15T11:23:57;4.10;;;2.90;;
4738;SDS011;2383;48.632;10.156;2024-02-15T11:28:38;4.40;;;2.78;;
4738;SDS011;2383;48.632;10.156;2024-02-15T11:36:51;5.93;;;3.28;;
4738;SDS011;2383;48.632;10.156;2024-02-15T11:45:04;4.78;;;2.90;;
4738;SDS011;2383;48.632;10.156;2024-02-15T11:49:07;3.97;;;2.67;;
4738;SDS011;2383;48.632;10.156;2024-02-15T11:53:20;6.30;;;2.85;;
4738;SDS011;2383;48.632;10.156;2024-02-15T11:57:22;4.43;;;2.70;;
4738;SDS011;2383;48.632;10.156;2024-02-15T12:01:38;4.07;;;2.72;;
4738;SDS011;2383;48.632;10.156;2024-02-15T12:05:58;7.68;;;3.20;;
4738;SDS011;2383;48.632;10.156;2024-02-15T12:10:20;3.72;;;2.50;;
4738;SDS011;2383;48.632;10.156;2024-02-15T12:14:41;7.00;;;2.22;;
4738;SDS011;2383;48.632;10.156;2024-02-15T12:19:01;6.35;;;2.75;;
4738;SDS011;2383;48.632;10.156;2024-02-15T12:23:05;3.00;;;1.70;;
4738;SDS011;2383;48.632;10.156;2024-02-15T12:27:09;5.78;;;1.88;;
4738;SDS011;2383;48.632;10.156;2024-02-15T12:31:11;4.30;;;1.63;;
4738;SDS011;2383;48.632;10.156;2024-02-15T12:35:15;3.05;;;1.73;;
4738;SDS011;2383;48.632;10.156;2024-02-15T12:39:24;4.53;;;2.10;;
4738;SDS011;2383;48.632;10.156;2024-02-15T12:43:27;3.55;;;1.80;;
4738;SDS011;2383;48.632;10.156;2024-02-15T12:47:30;2.90;;;1.77;;
4738;SDS011;2383;48.632;10.156;2024-02-15T12:51:32;4.03;;;1.55;;
4738;SDS011;2383;48.632;10.156;2024-02-15T12:55:39;4.60;;;1.80;;
4738;SDS011;2383;48.632;10.156;2024-02-15T12:59:42;6.28;;;2.58;;
4738;SDS011;2383;48.632;10.156;2024-02-15T13:03:44;2.33;;;1.85;;
4738;SDS011;2383;48.632;10.156;2024-02-15T13:07:47;3.67;;;2.00;;
4738;SDS011;2383;48.632;10.156;2024-02-15T13:11:53;3.95;;;1.75;;
4738;SDS011;2383;48.632;10.156;2024-02-15T13:15:55;2.08;;;1.73;;
4738;SDS011;2383;48.632;10.156;2024-02-15T13:19:59;3.75;;;1.90;;
4738;SDS011;2383;48.632;10.156;2024-02-15T13:24:12;5.45;;;2.30;;
4738;SDS011;2383;48.632;10.156;2024-02-15T13:28:16;3.45;;;1.98;;
4738;SDS011;2383;48.632;10.156;2024-02-15T13:32:18;2.22;;;1.85;;
4738;SDS011;2383;48.632;10.156;2024-02-15T13:36:22;5.00;;;2.15;;
4738;SDS011;2383;48.632;10.156;2024-02-15T13:40:26;4.65;;;2.30;;
4738;SDS011;2383;48.632;10.156;2024-02-15T13:44:30;4.38;;;2.30;;
4738;SDS011;2383;48.632;10.156;2024-02-15T13:48:32;4.47;;;2.40;;
4738;SDS011;2383;48.632;10.156;2024-02-15T13:52:34;3.88;;;2.30;;
4738;SDS011;2383;48.632;10.156;2024-02-15T13:56:36;5.90;;;2.40;;
4738;SDS011;2383;48.632;10.156;2024-02-15T14:00:39;3.40;;;2.17;;
4738;SDS011;2383;48.632;10.156;2024-02-15T14:04:44;4.00;;;2.28;;
4738;SDS011;2383;48.632;10.156;2024-02-15T14:08:47;3.20;;;2.00;;
4738;SDS011;2383;48.632;10.156;2024-02-15T14:12:49;7.00;;;2.80;;
4738;SDS011;2383;48.632;10.156;2024-02-15T14:17:03;4.40;;;2.10;;
4738;SDS011;2383;48.632;10.156;2024-02-15T14:21:05;5.25;;;2.30;;
4738;SDS011;2383;48.632;10.156;2024-02-15T14:25:12;3.13;;;1.83;;
4738;SDS011;2383;48.632;10.156;2024-02-15T14:29:14;4.03;;;2.10;;
4738;SDS011;2383;48.632;10.156;2024-02-15T14:33:17;4.72;;;2.40;;
4738;SDS011;2383;48.632;10.156;2024-02-15T14:37:23;3.53;;;1.90;;
4738;SDS011;2383;48.632;10.156;2024-02-15T14:41:25;3.40;;;1.83;;
4738;SDS011;2383;48.632;10.156;2024-02-15T14:45:34;3.25;;;1.90;;
4738;SDS011;2383;48.632;10.156;2024-02-15T14:49:39;4.93;;;2.00;;
4738;SDS011;2383;48.632;10.156;2024-02-15T14:53:42;4.88;;;2.30;;
4738;SDS011;2383;48.632;10.156;2024-02-15T14:57:45;4.38;;;2.70;;
4738;SDS011;2383;48.632;10.156;2024-02-15T15:01:48;6.47;;;2.67;;
4738;SDS011;2383;48.632;10.156;2024-02-15T15:05:51;9.80;;;4.00;;
4738;SDS011;2383;48.632;10.156;2024-02-15T15:10:12;5.43;;;3.33;;
4738;SDS011;2383;48.632;10.156;2024-02-15T15:14:33;5.03;;;2.90;;
4738;SDS011;2383;48.632;10.156;2024-02-15T15:18:35;7.35;;;3.80;;
4738;SDS011;2383;48.632;10.156;2024-02-15T15:22:37;5.50;;;2.80;;
4738;SDS011;2383;48.632;10.156;2024-02-15T15:26:40;7.82;;;2.75;;
4738;SDS011;2383;48.632;10.156;2024-02-15T15:30:42;4.43;;;2.42;;
4738;SDS011;2383;48.632;10.156;2024-02-15T15:34:50;4.20;;;2.75;;
4738;SDS011;2383;48.632;10.156;2024-02-15T15:38:52;4.72;;;2.60;;
4738;SDS011;2383;48.632;10.156;2024-02-15T15:42:54;7.57;;;2.67;;
4738;SDS011;2383;48.632;10.156;2024-02-15T15:46:57;5.15;;;2.10;;
4738;SDS011;2383;48.632;10.156;2024-02-15T15:50:59;4.45;;;2.60;;
4738;SDS011;2383;48.632;10.156;2024-02-15T15:55:07;4.20;;;2.97;;
4738;SDS011;2383;48.632;10.156;2024-02-15T15:59:12;6.00;;;2.90;;
4738;SDS011;2383;48.632;10.156;2024-02-15T16:03:15;3.83;;;2.30;;
4738;SDS011;2383;48.632;10.156;2024-02-15T16:07:17;3.65;;;2.47;;
4738;SDS011;2383;48.632;10.156;2024-02-15T16:11:19;5.63;;;3.35;;
4738;SDS011;2383;48.632;10.156;2024-02-15T16:15:21;6.68;;;3.15;;
4738;SDS011;2383;48.632;10.156;2024-02-15T16:19:26;5.63;;;2.60;;
4738;SDS011;2383;48.632;10.156;2024-02-15T16:23:28;6.00;;;3.17;;
4738;SDS011;2383;48.632;10.156;2024-02-15T16:27:30;8.03;;;3.23;;
4738;SDS011;2383;48.632;10.156;2024-02-15T16:31:35;8.27;;;4.13;;
4738;SDS011;2383;48.632;10.156;2024-02-15T16:35:37;6.88;;;4.30;;
4738;SDS011;2383;48.632;10.156;2024-02-15T16:39:39;8.95;;;4.82;;
4738;SDS011;2383;48.632;10.156;2024-02-15T16:43:44;8.88;;;4.95;;
4738;SDS011;2383;48.632;10.156;2024-02-15T16:47:50;11.77;;;5.28;;
4738;SDS011;2383;48.632;10.156;2024-02-15T16:52:01;12.10;;;4.87;;
4738;SDS011;2383;48.632;10.156;2024-02-15T16:56:03;10.73;;;5.63;;
4738;SDS011;2383;48.632;10.156;2024-02-15T17:00:08;10.32;;;5.38;;
4738;SDS011;2383;48.632;10.156;2024-02-15T17:04:14;13.70;;;7.67;;
4738;SDS011;2383;48.632;10.156;2024-02-15T17:08:18;12.77;;;8.03;;
4738;SDS011;2383;48.632;10.156;2024-02-15T17:12:21;12.20;;;8.60;;
4738;SDS011;2383;48.632;10.156;2024-02-15T17:16:23;13.80;;;8.40;;
4738;SDS011;2383;48.632;10.156;2024-02-15T17:20:25;12.38;;;9.25;;
4738;SDS011;2383;48.632;10.156;2024-02-15T17:24:28;13.53;;;8.30;;
4738;SDS011;2383;48.632;10.156;2024-02-15T17:28:30;15.02;;;8.95;;
4738;SDS011;2383;48.632;10.156;2024-02-15T17:32:32;13.70;;;8.25;;
4738;SDS011;2383;48.632;10.156;2024-02-15T17:36:34;10.65;;;8.98;;
4738;SDS011;2383;48.632;10.156;2024-02-15T17:40:37;11.15;;;8.23;;
4738;SDS011;2383;48.632;10.156;2024-02-15T17:44:39;14.57;;;11.48;;
4738;SDS011;2383;48.632;10.156;2024-02-15T17:48:42;13.15;;;10.27;;
4738;SDS011;2383;48.632;10.156;2024-02-15T17:52:44;13.87;;;11.80;;
4738;SDS011;2383;48.632;10.156;2024-02-15T17:56:47;17.63;;;13.80;;
4738;SDS011;2383;48.632;10.156;2024-02-15T18:00:50;12.67;;;10.47;;
4738;SDS011;2383;48.632;10.156;2024-02-15T18:04:54;10.97;;;9.10;;
4738;SDS011;2383;48.632;10.156;2024-02-15T18:08:56;12.77;;;9.10;;
4738;SDS011;2383;48.632;10.156;2024-02-15T18:12:58;13.83;;;8.90;;
4738;SDS011;2383;48.632;10.156;2024-02-15T18:17:00;12.70;;;7.50;;
4738;SDS011;2383;48.632;10.156;2024-02-15T18:21:03;11.27;;;7.22;;
4738;SDS011;2383;48.632;10.156;2024-02-15T18:25:06;16.17;;;10.80;;
4738;SDS011;2383;48.632;10.156;2024-02-15T18:29:10;21.37;;;14.17;;
4738;SDS011;2383;48.632;10.156;2024-02-15T18:33:14;18.07;;;12.53;;
4738;SDS011;2383;48.632;10.156;2024-02-15T18:37:17;17.07;;;12.20;;
4738;SDS011;2383;48.632;10.156;2024-02-15T18:41:19;18.20;;;13.00;;
4738;SDS011;2383;48.632;10.156;2024-02-15T18:45:21;22.13;;;13.00;;
4738;SDS011;2383;48.632;10.156;2024-02-15T18:49:24;23.70;;;12.43;;
4738;SDS011;2383;48.632;10.156;2024-02-15T18:53:36;33.43;;;14.97;;
4738;SDS011;2383;48.632;10.156;2024-02-15T18:57:39;30.30;;;13.70;;
4738;SDS011;2383;48.632;10.156;2024-02-15T19:01:41;26.00;;;13.67;;
4738;SDS011;2383;48.632;10.156;2024-02-15T19:05:43;26.20;;;14.27;;
4738;SDS011;2383;48.632;10.156;2024-02-15T19:09:46;26.20;;;13.10;;
4738;SDS011;2383;48.632;10.156;2024-02-15T19:13:49;23.60;;;14.57;;
4738;SDS011;2383;48.632;10.156;2024-02-15T19:17:51;22.07;;;12.40;;
4738;SDS011;2383;48.632;10.156;2024-02-15T19:21:54;14.73;;;9.47;;
4738;SDS011;2383;48.632;10.156;2024-02-15T19:25:56;13.63;;;7.33;;
4738;SDS011;2383;48.632;10.156;2024-02-15T19:29:59;14.77;;;7.10;;
4738;SDS011;2383;48.632;10.156;2024-02-15T19:34:08;9.53;;;6.37;;
4738;SDS011;2383;48.632;10.156;2024-02-15T19:38:10;14.67;;;6.37;;
4738;SDS011;2383;48.632;10.156;2024-02-15T19:42:12;13.20;;;6.00;;
4738;SDS011;2383;48.632;10.156;2024-02-15T19:46:15;8.83;;;5.30;;
4738;SDS011;2383;48.632;10.156;2024-02-15T19:50:17;6.43;;;4.53;;
4738;SDS011;2383;48.632;10.156;2024-02-15T19:54:23;56.27;;;35.57;;
4738;SDS011;2383;48.632;10.156;2024-02-15T19:58:26;29.67;;;19.47;;
4738;SDS011;2383;48.632;10.156;2024-02-15T20:02:28;27.47;;;14.80;;
4738;SDS011;2383;48.632;10.156;2024-02-15T20:06:30;20.87;;;12.97;;
4738;SDS011;2383;48.632;10.156;2024-02-15T20:10:33;45.57;;;27.60;;
4738;SDS011;2383;48.632;10.156;2024-02-15T20:14:37;13.37;;;8.10;;
4738;SDS011;2383;48.632;10.156;2024-02-15T20:18:41;23.67;;;11.80;;
4738;SDS011;2383;48.632;10.156;2024-02-15T20:22:44;20.93;;;10.77;;
4738;SDS011;2383;48.632;10.156;2024-02-15T20:26:48;19.03;;;10.90;;
4738;SDS011;2383;48.632;10.156;2024-02-15T20:30:53;20.27;;;13.23;;
4738;SDS011;2383;48.632;10.156;2024-02-15T20:34:58;21.00;;;12.93;;
4738;SDS011;2383;48.632;10.156;2024-02-15T20:39:00;25.80;;;14.43;;
4738;SDS011;2383;48.632;10.156;2024-02-15T20:43:03;21.30;;;14.37;;
4738;SDS011;2383;48.632;10.156;2024-02-15T20:47:05;26.40;;;14.03;;
4738;SDS011;2383;48.632;10.156;2024-02-15T20:51:13;28.83;;;14.23;;
4738;SDS011;2383;48.632;10.156;2024-02-15T20:55:15;25.00;;;15.13;;
4738;SDS011;2383;48.632;10.156;2024-02-15T20:59:18;24.13;;;13.30;;
4738;SDS011;2383;48.632;10.156;2024-02-15T21:03:20;22.77;;;13.40;;
4738;SDS011;2383;48.632;10.156;2024-02-15T21:07:22;17.70;;;10.23;;
4738;SDS011;2383;48.632;10.156;2024-02-15T21:11:25;19.73;;;9.60;;
4738;SDS011;2383;48.632;10.156;2024-02-15T21:15:27;13.03;;;8.73;;
4738;SDS011;2383;48.632;10.156;2024-02-15T21:19:29;17.17;;;10.27;;
4738;SDS011;2383;48.632;10.156;2024-02-15T21:23:31;14.83;;;8.03;;
4738;SDS011;2383;48.632;10.156;2024-02-15T21:27:35;12.63;;;7.97;;
4738;SDS011;2383;48.632;10.156;2024-02-15T21:31:37;12.50;;;7.60;;
4738;SDS011;2383;48.632;10.156;2024-02-15T21:35:40;12.13;;;7.37;;
4738;SDS011;2383;48.632;10.156;2024-02-15T21:39:41;9.73;;;6.73;;
4738;SDS011;2383;48.632;10.156;2024-02-15T21:43:44;12.27;;;7.63;;
4738;SDS011;2383;48.632;10.156;2024-02-15T21:47:46;16.93;;;9.97;;
4738;SDS011;2383;48.632;10.156;2024-02-15T21:51:50;20.10;;;11.20;;
4738;SDS011;2383;48.632;10.156;2024-02-15T21:55:52;15.87;;;8.83;;
4738;SDS011;2383;48.632;10.156;2024-02-15T21:59:54;14.23;;;7.73;;
4738;SDS011;2383;48.632;10.156;2024-02-15T22:03:57;14.60;;;7.93;;
4738;SDS011;2383;48.632;10.156;2024-02-15T22:07:59;15.43;;;8.90;;
4738;SDS011;2383;48.632;10.156;2024-02-15T22:12:01;21.93;;;11.47;;
4738;SDS011;2383;48.632;10.156;2024-02-15T22:16:04;17.03;;;9.13;;
4738;SDS011;2383;48.632;10.156;2024-02-15T22:20:06;14.80;;;8.80;;
4738;SDS011;2383;48.632;10.156;2024-02-15T22:24:14;14.43;;;6.90;;
4738;SDS011;2383;48.632;10.156;2024-02-15T22:28:16;9.97;;;5.90;;
4738;SDS011;2383;48.632;10.156;2024-02-15T22:32:19;16.43;;;8.80;;
4738;SDS011;2383;48.632;10.156;2024-02-15T22:36:24;11.40;;;6.67;;
4738;SDS011;2383;48.632;10.156;2024-02-15T22:40:27;13.03;;;7.77;;
4738;SDS011;2383;48.632;10.156;2024-02-15T22:44:30;12.40;;;6.70;;
4738;SDS011;2383;48.632;10.156;2024-02-15T22:48:35;11.13;;;5.70;;
4738;SDS011;2383;48.632;10.156;2024-02-15T22:52:39;8.73;;;4.80;;
4738;SDS011;2383;48.632;10.156;2024-02-15T22:56:41;8.03;;;4.43;;
4738;SDS011;2383;48.632;10.156;2024-02-15T23:00:43;6.43;;;4.10;;
4738;SDS011;2383;48.632;10.156;2024-02-15T23:04:46;12.03;;;5.47;;
4738;SDS011;2383;48.632;10.156;2024-02-15T23:08:49;12.83;;;7.83;;
4738;SDS011;2383;48.632;10.156;2024-02-15T23:12:51;14.53;;;8.70;;
4738;SDS011;2383;48.632;10.156;2024-02-15T23:16:53;11.70;;;6.50;;
4738;SDS011;2383;48.632;10.156;2024-02-15T23:20:55;13.47;;;6.77;;
4738;SDS011;2383;48.632;10.156;2024-02-15T23:24:57;13.20;;;6.90;;
4738;SDS011;2383;48.632;10.156;2024-02-15T23:29:03;13.30;;;7.40;;
4738;SDS011;2383;48.632;10.156;2024-02-15T23:33:05;18.23;;;7.73;;
4738;SDS011;2383;48.632;10.156;2024-02-15T23:37:10;14.87;;;8.17;;
4738;SDS011;2383;48.632;10.156;2024-02-15T23:41:44;13.70;;;7.80;;
4738;SDS011;2383;48.632;10.156;2024-02-15T23:45:46;10.13;;;6.20;;
4738;SDS011;2383;48.632;10.156;2024-02-15T23:49:48;9.57;;;6.50;;
4738;SDS011;2383;48.632;10.156;2024-02-15T23:53:51;12.63;;;7.60;;
4738;SDS011;2383;48.632;10.156;2024-02-15T23:57:53;11.93;;;7.07;;
